sensor_id;sensor_type;location;lat;lon;timestamp;P1;durP1;ratioP1;P2;durP2;ratioP2
15342;SDS011;7771;48.478;8.936;2023-12-04T00:03:48;30.60;;;15.77;;
15342;SDS011;7771;48.478;8.936;2023-12-04T00:06:14;30.33;;;16.33;;
15342;SDS011;7771;48.478;8.936;2023-12-04T00:08:41;26.40;;;14.70;;
15342;SDS011;7771;48.478;8.936;2023-12-04T00:11:08;29.03;;;14.50;;
15342;SDS011;7771;48.478;8.936;2023-12-04T00:13:35;26.97;;;15.77;;
15342;SDS011;7771;48.478;8.936;2023-12-04T00:16:02;26.13;;;15.03;;
15342;SDS011;7771;48.478;8.936;2023-12-04T00:18:30;25.67;;;16.07;;
15342;SDS011;7771;48.478;8.936;2023-12-04T00:20:57;28.20;;;15.93;;
15342;SDS011;7771;48.478;8.936;2023-12-04T00:23:23;28.53;;;15.93;;
15342;SDS011;7771;48.478;8.936;2023-12-04T00:25:51;31.43;;;16.13;;
15342;SDS011;7771;48.478;8.936;2023-12-04T00:28:19;23.47;;;14.77;;
15342;SDS011;7771;48.478;8.936;2023-12-04T00:30:47;26.27;;;14.03;;
15342;SDS011;7771;48.478;8.936;2023-12-04T00:33:13;30.73;;;14.80;;
15342;SDS011;7771;48.478;8.936;2023-12-04T00:35:41;26.23;;;13.67;;
15342;SDS011;7771;48.478;8.936;2023-12-04T00:38:07;27.30;;;13.30;;
15342;SDS011;7771;48.478;8.936;2023-12-04T00:40:34;23.73;;;13.27;;
15342;SDS011;7771;48.478;8.936;2023-12-04T00:43:01;26.33;;;13.83;;
15342;SDS011;7771;48.478;8.936;2023-12-04T00:45:27;23.90;;;13.37;;
15342;SDS011;7771;48.478;8.936;2023-12-04T00:47:54;24.90;;;13.80;;
15342;SDS011;7771;48.478;8.936;2023-12-04T00:50:21;27.50;;;14.73;;
15342;SDS011;7771;48.478;8.936;2023-12-04T00:52:49;26.93;;;14.60;;
15342;SDS011;7771;48.478;8.936;2023-12-04T00:55:16;24.57;;;12.77;;
15342;SDS011;7771;48.478;8.936;2023-12-04T00:57:42;21.63;;;13.53;;
15342;SDS011;7771;48.478;8.936;2023-12-04T01:00:10;22.90;;;12.43;;
15342;SDS011;7771;48.478;8.936;2023-12-04T01:02:37;23.70;;;13.27;;
15342;SDS011;7771;48.478;8.936;2023-12-04T01:05:04;23.23;;;14.03;;
15342;SDS011;7771;48.478;8.936;2023-12-04T01:07:31;25.67;;;13.90;;
15342;SDS011;7771;48.478;8.936;2023-12-04T01:10:00;24.73;;;13.43;;
15342;SDS011;7771;48.478;8.936;2023-12-04T01:12:26;26.03;;;13.60;;
15342;SDS011;7771;48.478;8.936;2023-12-04T01:14:54;25.97;;;13.23;;
15342;SDS011;7771;48.478;8.936;2023-12-04T01:17:22;24.93;;;13.50;;
15342;SDS011;7771;48.478;8.936;2023-12-04T01:19:49;22.87;;;13.90;;
15342;SDS011;7771;48.478;8.936;2023-12-04T01:22:16;21.23;;;13.57;;
15342;SDS011;7771;48.478;8.936;2023-12-04T01:24:43;25.63;;;14.20;;
15342;SDS011;7771;48.478;8.936;2023-12-04T01:27:10;25.33;;;14.37;;
15342;SDS011;7771;48.478;8.936;2023-12-04T01:29:37;25.20;;;13.77;;
15342;SDS011;7771;48.478;8.936;2023-12-04T01:32:05;23.67;;;13.10;;
15342;SDS011;7771;48.478;8.936;2023-12-04T01:34:33;24.00;;;12.60;;
15342;SDS011;7771;48.478;8.936;2023-12-04T01:37:00;27.43;;;15.17;;
15342;SDS011;7771;48.478;8.936;2023-12-04T01:39:27;24.43;;;13.47;;
15342;SDS011;7771;48.478;8.936;2023-12-04T01:41:54;22.70;;;13.17;;
15342;SDS011;7771;48.478;8.936;2023-12-04T01:44:21;24.60;;;13.47;;
15342;SDS011;7771;48.478;8.936;2023-12-04T01:46:48;21.23;;;11.90;;
15342;SDS011;7771;48.478;8.936;2023-12-04T01:49:15;25.50;;;13.40;;
15342;SDS011;7771;48.478;8.936;2023-12-04T01:51:42;22.63;;;12.27;;
15342;SDS011;7771;48.478;8.936;2023-12-04T01:54:09;23.90;;;12.50;;
15342;SDS011;7771;48.478;8.936;2023-12-04T01:56:37;26.63;;;13.03;;
15342;SDS011;7771;48.478;8.936;2023-12-04T01:59:05;22.93;;;11.73;;
15342;SDS011;7771;48.478;8.936;2023-12-04T02:01:31;23.93;;;12.80;;
15342;SDS011;7771;48.478;8.936;2023-12-04T02:03:59;22.10;;;13.13;;
15342;SDS011;7771;48.478;8.936;2023-12-04T02:06:25;22.77;;;12.77;;
15342;SDS011;7771;48.478;8.936;2023-12-04T02:08:53;19.13;;;11.47;;
15342;SDS011;7771;48.478;8.936;2023-12-04T02:11:21;21.37;;;12.40;;
15342;SDS011;7771;48.478;8.936;2023-12-04T02:13:49;22.17;;;12.33;;
15342;SDS011;7771;48.478;8.936;2023-12-04T02:16:18;22.47;;;12.97;;
15342;SDS011;7771;48.478;8.936;2023-12-04T02:18:45;20.57;;;12.60;;
15342;SDS011;7771;48.478;8.936;2023-12-04T02:21:13;24.43;;;13.53;;
15342;SDS011;7771;48.478;8.936;2023-12-04T02:23:41;19.33;;;11.83;;
15342;SDS011;7771;48.478;8.936;2023-12-04T02:26:10;22.40;;;12.37;;
15342;SDS011;7771;48.478;8.936;2023-12-04T02:28:36;19.57;;;11.53;;
15342;SDS011;7771;48.478;8.936;2023-12-04T02:31:04;22.10;;;12.03;;
15342;SDS011;7771;48.478;8.936;2023-12-04T02:33:32;20.13;;;11.97;;
15342;SDS011;7771;48.478;8.936;2023-12-04T02:35:59;23.03;;;12.33;;
15342;SDS011;7771;48.478;8.936;2023-12-04T02:38:26;24.90;;;12.93;;
15342;SDS011;7771;48.478;8.936;2023-12-04T02:40:53;21.20;;;12.43;;
15342;SDS011;7771;48.478;8.936;2023-12-04T02:43:20;22.37;;;12.63;;
15342;SDS011;7771;48.478;8.936;2023-12-04T02:45:47;20.07;;;12.40;;
15342;SDS011;7771;48.478;8.936;2023-12-04T02:48:14;24.33;;;12.50;;
15342;SDS011;7771;48.478;8.936;2023-12-04T02:50:42;21.93;;;12.90;;
15342;SDS011;7771;48.478;8.936;2023-12-04T02:53:09;19.53;;;11.77;;
15342;SDS011;7771;48.478;8.936;2023-12-04T02:55:36;24.63;;;13.53;;
15342;SDS011;7771;48.478;8.936;2023-12-04T02:58:03;30.63;;;16.50;;
15342;SDS011;7771;48.478;8.936;2023-12-04T03:00:29;24.03;;;14.80;;
15342;SDS011;7771;48.478;8.936;2023-12-04T03:02:56;26.00;;;14.77;;
15342;SDS011;7771;48.478;8.936;2023-12-04T03:05:23;24.13;;;15.10;;
15342;SDS011;7771;48.478;8.936;2023-12-04T03:07:50;23.40;;;13.80;;
15342;SDS011;7771;48.478;8.936;2023-12-04T03:10:19;28.37;;;12.77;;
15342;SDS011;7771;48.478;8.936;2023-12-04T03:12:47;22.07;;;12.47;;
15342;SDS011;7771;48.478;8.936;2023-12-04T03:15:13;19.90;;;12.00;;
15342;SDS011;7771;48.478;8.936;2023-12-04T03:17:41;22.57;;;12.20;;
15342;SDS011;7771;48.478;8.936;2023-12-04T03:20:09;20.70;;;12.57;;
15342;SDS011;7771;48.478;8.936;2023-12-04T03:22:37;21.93;;;13.03;;
15342;SDS011;7771;48.478;8.936;2023-12-04T03:25:05;21.30;;;12.60;;
15342;SDS011;7771;48.478;8.936;2023-12-04T03:27:33;20.40;;;12.10;;
15342;SDS011;7771;48.478;8.936;2023-12-04T03:30:01;21.33;;;12.20;;
15342;SDS011;7771;48.478;8.936;2023-12-04T03:32:28;20.03;;;11.03;;
15342;SDS011;7771;48.478;8.936;2023-12-04T03:34:55;24.80;;;13.20;;
15342;SDS011;7771;48.478;8.936;2023-12-04T03:37:22;51.90;;;21.07;;
15342;SDS011;7771;48.478;8.936;2023-12-04T03:39:50;39.63;;;19.00;;
15342;SDS011;7771;48.478;8.936;2023-12-04T03:42:17;27.77;;;15.63;;
15342;SDS011;7771;48.478;8.936;2023-12-04T03:44:46;29.07;;;13.57;;
15342;SDS011;7771;48.478;8.936;2023-12-04T03:47:13;22.00;;;12.87;;
15342;SDS011;7771;48.478;8.936;2023-12-04T03:49:40;23.90;;;12.80;;
15342;SDS011;7771;48.478;8.936;2023-12-04T03:52:07;20.73;;;11.97;;
15342;SDS011;7771;48.478;8.936;2023-12-04T03:54:34;21.17;;;11.87;;
15342;SDS011;7771;48.478;8.936;2023-12-04T03:57:02;20.97;;;12.33;;
15342;SDS011;7771;48.478;8.936;2023-12-04T03:59:28;19.73;;;11.53;;
15342;SDS011;7771;48.478;8.936;2023-12-04T04:01:56;18.03;;;10.87;;
15342;SDS011;7771;48.478;8.936;2023-12-04T04:04:22;21.70;;;12.23;;
15342;SDS011;7771;48.478;8.936;2023-12-04T04:06:51;20.87;;;12.33;;
15342;SDS011;7771;48.478;8.936;2023-12-04T04:09:18;17.20;;;11.40;;
15342;SDS011;7771;48.478;8.936;2023-12-04T04:11:46;17.70;;;11.10;;
15342;SDS011;7771;48.478;8.936;2023-12-04T04:14:14;18.47;;;11.10;;
15342;SDS011;7771;48.478;8.936;2023-12-04T04:16:42;20.20;;;12.00;;
15342;SDS011;7771;48.478;8.936;2023-12-04T04:19:09;20.13;;;11.17;;
15342;SDS011;7771;48.478;8.936;2023-12-04T04:21:39;18.60;;;10.87;;
15342;SDS011;7771;48.478;8.936;2023-12-04T04:24:05;18.67;;;10.87;;
15342;SDS011;7771;48.478;8.936;2023-12-04T04:26:33;16.37;;;10.87;;
15342;SDS011;7771;48.478;8.936;2023-12-04T04:29:00;17.40;;;10.63;;
15342;SDS011;7771;48.478;8.936;2023-12-04T04:31:28;17.00;;;9.80;;
15342;SDS011;7771;48.478;8.936;2023-12-04T04:33:55;19.13;;;11.40;;
15342;SDS011;7771;48.478;8.936;2023-12-04T04:36:22;19.23;;;10.93;;
15342;SDS011;7771;48.478;8.936;2023-12-04T04:38:49;20.53;;;11.70;;
15342;SDS011;7771;48.478;8.936;2023-12-04T04:41:17;19.13;;;11.37;;
15342;SDS011;7771;48.478;8.936;2023-12-04T04:43:44;20.23;;;12.17;;
15342;SDS011;7771;48.478;8.936;2023-12-04T04:46:11;21.60;;;11.70;;
15342;SDS011;7771;48.478;8.936;2023-12-04T04:48:37;23.17;;;11.30;;
15342;SDS011;7771;48.478;8.936;2023-12-04T04:51:06;20.50;;;11.30;;
15342;SDS011;7771;48.478;8.936;2023-12-04T04:53:33;17.37;;;10.97;;
15342;SDS011;7771;48.478;8.936;2023-12-04T04:56:01;17.87;;;11.93;;
15342;SDS011;7771;48.478;8.936;2023-12-04T04:58:28;21.43;;;11.23;;
15342;SDS011;7771;48.478;8.936;2023-12-04T05:00:55;19.50;;;11.47;;
15342;SDS011;7771;48.478;8.936;2023-12-04T05:03:22;20.63;;;12.37;;
15342;SDS011;7771;48.478;8.936;2023-12-04T05:05:50;19.73;;;11.60;;
15342;SDS011;7771;48.478;8.936;2023-12-04T05:08:18;20.00;;;11.63;;
15342;SDS011;7771;48.478;8.936;2023-12-04T05:10:46;18.70;;;11.23;;
15342;SDS011;7771;48.478;8.936;2023-12-04T05:13:14;21.93;;;12.43;;
15342;SDS011;7771;48.478;8.936;2023-12-04T05:15:41;24.23;;;13.27;;
15342;SDS011;7771;48.478;8.936;2023-12-04T05:18:09;21.07;;;11.77;;
15342;SDS011;7771;48.478;8.936;2023-12-04T05:20:36;23.23;;;13.37;;
15342;SDS011;7771;48.478;8.936;2023-12-04T05:23:03;21.90;;;13.63;;
15342;SDS011;7771;48.478;8.936;2023-12-04T05:25:30;26.83;;;15.63;;
15342;SDS011;7771;48.478;8.936;2023-12-04T05:27:57;25.23;;;14.97;;
15342;SDS011;7771;48.478;8.936;2023-12-04T05:30:25;24.67;;;14.90;;
15342;SDS011;7771;48.478;8.936;2023-12-04T05:32:51;24.97;;;14.60;;
15342;SDS011;7771;48.478;8.936;2023-12-04T05:35:18;26.57;;;15.37;;
15342;SDS011;7771;48.478;8.936;2023-12-04T05:37:46;29.83;;;15.57;;
15342;SDS011;7771;48.478;8.936;2023-12-04T05:40:14;28.07;;;15.43;;
15342;SDS011;7771;48.478;8.936;2023-12-04T05:42:43;24.43;;;14.20;;
15342;SDS011;7771;48.478;8.936;2023-12-04T05:45:10;27.10;;;15.43;;
15342;SDS011;7771;48.478;8.936;2023-12-04T05:47:37;26.90;;;14.27;;
15342;SDS011;7771;48.478;8.936;2023-12-04T05:50:03;31.00;;;16.00;;
15342;SDS011;7771;48.478;8.936;2023-12-04T05:52:31;20.67;;;12.43;;
15342;SDS011;7771;48.478;8.936;2023-12-04T05:54:57;21.63;;;12.60;;
15342;SDS011;7771;48.478;8.936;2023-12-04T05:57:24;20.37;;;12.00;;
15342;SDS011;7771;48.478;8.936;2023-12-04T05:59:51;17.60;;;10.93;;
15342;SDS011;7771;48.478;8.936;2023-12-04T06:02:17;18.80;;;11.40;;
15342;SDS011;7771;48.478;8.936;2023-12-04T06:04:45;19.33;;;10.37;;
15342;SDS011;7771;48.478;8.936;2023-12-04T06:07:12;17.63;;;10.70;;
15342;SDS011;7771;48.478;8.936;2023-12-04T06:09:40;18.73;;;10.80;;
15342;SDS011;7771;48.478;8.936;2023-12-04T06:12:07;19.60;;;11.20;;
15342;SDS011;7771;48.478;8.936;2023-12-04T06:14:34;19.37;;;11.60;;
15342;SDS011;7771;48.478;8.936;2023-12-04T06:17:01;22.27;;;11.93;;
15342;SDS011;7771;48.478;8.936;2023-12-04T06:19:28;20.53;;;11.40;;
15342;SDS011;7771;48.478;8.936;2023-12-04T06:21:56;19.73;;;11.87;;
15342;SDS011;7771;48.478;8.936;2023-12-04T06:24:24;20.17;;;12.57;;
15342;SDS011;7771;48.478;8.936;2023-12-04T06:26:50;22.47;;;11.83;;
15342;SDS011;7771;48.478;8.936;2023-12-04T06:29:18;31.57;;;15.00;;
15342;SDS011;7771;48.478;8.936;2023-12-04T06:31:46;33.17;;;15.53;;
15342;SDS011;7771;48.478;8.936;2023-12-04T06:34:17;26.30;;;15.17;;
15342;SDS011;7771;48.478;8.936;2023-12-04T06:36:44;27.57;;;14.33;;
15342;SDS011;7771;48.478;8.936;2023-12-04T06:39:11;20.27;;;12.07;;
15342;SDS011;7771;48.478;8.936;2023-12-04T06:41:39;21.53;;;11.77;;
15342;SDS011;7771;48.478;8.936;2023-12-04T06:44:06;21.30;;;13.03;;
15342;SDS011;7771;48.478;8.936;2023-12-04T06:46:37;22.67;;;12.57;;
15342;SDS011;7771;48.478;8.936;2023-12-04T06:49:03;22.97;;;13.27;;
15342;SDS011;7771;48.478;8.936;2023-12-04T06:51:29;29.37;;;16.10;;
15342;SDS011;7771;48.478;8.936;2023-12-04T06:53:58;35.33;;;18.73;;
15342;SDS011;7771;48.478;8.936;2023-12-04T06:56:24;28.30;;;17.27;;
15342;SDS011;7771;48.478;8.936;2023-12-04T06:58:51;37.53;;;17.93;;
15342;SDS011;7771;48.478;8.936;2023-12-04T07:01:19;28.00;;;17.67;;
15342;SDS011;7771;48.478;8.936;2023-12-04T07:03:47;31.17;;;18.03;;
15342;SDS011;7771;48.478;8.936;2023-12-04T07:06:13;30.53;;;16.70;;
15342;SDS011;7771;48.478;8.936;2023-12-04T07:08:40;29.60;;;16.20;;
15342;SDS011;7771;48.478;8.936;2023-12-04T07:11:07;25.33;;;15.33;;
15342;SDS011;7771;48.478;8.936;2023-12-04T07:13:35;26.57;;;16.23;;
15342;SDS011;7771;48.478;8.936;2023-12-04T07:16:01;28.60;;;16.60;;
15342;SDS011;7771;48.478;8.936;2023-12-04T07:18:29;30.60;;;16.30;;
15342;SDS011;7771;48.478;8.936;2023-12-04T07:20:56;29.57;;;17.37;;
15342;SDS011;7771;48.478;8.936;2023-12-04T07:23:24;36.67;;;18.53;;
15342;SDS011;7771;48.478;8.936;2023-12-04T07:25:51;31.60;;;18.27;;
15342;SDS011;7771;48.478;8.936;2023-12-04T07:30:51;36.77;;;21.30;;
15342;SDS011;7771;48.478;8.936;2023-12-04T07:33:18;40.10;;;21.73;;
15342;SDS011;7771;48.478;8.936;2023-12-04T07:35:45;30.13;;;18.33;;
15342;SDS011;7771;48.478;8.936;2023-12-04T07:38:13;39.23;;;20.37;;
15342;SDS011;7771;48.478;8.936;2023-12-04T07:40:40;34.03;;;18.93;;
15342;SDS011;7771;48.478;8.936;2023-12-04T07:43:08;37.77;;;19.97;;
15342;SDS011;7771;48.478;8.936;2023-12-04T07:45:34;42.30;;;21.00;;
15342;SDS011;7771;48.478;8.936;2023-12-04T07:48:03;38.50;;;20.43;;
15342;SDS011;7771;48.478;8.936;2023-12-04T07:50:30;34.13;;;20.17;;
15342;SDS011;7771;48.478;8.936;2023-12-04T07:52:58;34.60;;;19.47;;
15342;SDS011;7771;48.478;8.936;2023-12-04T07:55:25;33.10;;;20.07;;
15342;SDS011;7771;48.478;8.936;2023-12-04T07:57:53;34.17;;;20.43;;
15342;SDS011;7771;48.478;8.936;2023-12-04T08:00:20;34.53;;;20.90;;
15342;SDS011;7771;48.478;8.936;2023-12-04T08:02:50;35.23;;;21.63;;
15342;SDS011;7771;48.478;8.936;2023-12-04T08:05:18;42.97;;;24.07;;
15342;SDS011;7771;48.478;8.936;2023-12-04T08:07:45;39.70;;;21.67;;
15342;SDS011;7771;48.478;8.936;2023-12-04T08:10:14;35.80;;;22.00;;
15342;SDS011;7771;48.478;8.936;2023-12-04T08:12:43;32.00;;;18.67;;
15342;SDS011;7771;48.478;8.936;2023-12-04T08:15:08;33.30;;;19.07;;
15342;SDS011;7771;48.478;8.936;2023-12-04T08:17:35;36.87;;;20.80;;
15342;SDS011;7771;48.478;8.936;2023-12-04T08:20:01;35.07;;;19.63;;
15342;SDS011;7771;48.478;8.936;2023-12-04T08:22:29;32.50;;;20.10;;
15342;SDS011;7771;48.478;8.936;2023-12-04T08:24:57;38.97;;;21.77;;
15342;SDS011;7771;48.478;8.936;2023-12-04T08:27:24;41.07;;;21.70;;
15342;SDS011;7771;48.478;8.936;2023-12-04T08:29:51;39.67;;;22.93;;
15342;SDS011;7771;48.478;8.936;2023-12-04T08:32:17;39.63;;;23.27;;
15342;SDS011;7771;48.478;8.936;2023-12-04T08:34:45;33.57;;;19.80;;
15342;SDS011;7771;48.478;8.936;2023-12-04T08:37:13;36.60;;;19.90;;
15342;SDS011;7771;48.478;8.936;2023-12-04T08:39:40;32.30;;;18.97;;
15342;SDS011;7771;48.478;8.936;2023-12-04T08:42:08;33.53;;;20.33;;
15342;SDS011;7771;48.478;8.936;2023-12-04T08:44:35;41.73;;;22.03;;
15342;SDS011;7771;48.478;8.936;2023-12-04T08:47:02;36.03;;;20.27;;
15342;SDS011;7771;48.478;8.936;2023-12-04T08:49:30;32.43;;;19.77;;
15342;SDS011;7771;48.478;8.936;2023-12-04T08:51:56;35.13;;;21.43;;
15342;SDS011;7771;48.478;8.936;2023-12-04T08:54:24;33.23;;;20.90;;
15342;SDS011;7771;48.478;8.936;2023-12-04T08:56:50;34.03;;;19.50;;
15342;SDS011;7771;48.478;8.936;2023-12-04T08:59:19;32.63;;;19.53;;
15342;SDS011;7771;48.478;8.936;2023-12-04T09:01:46;33.77;;;19.27;;
15342;SDS011;7771;48.478;8.936;2023-12-04T09:04:14;37.13;;;21.87;;
15342;SDS011;7771;48.478;8.936;2023-12-04T09:06:41;41.57;;;22.17;;
15342;SDS011;7771;48.478;8.936;2023-12-04T09:09:08;38.10;;;20.23;;
15342;SDS011;7771;48.478;8.936;2023-12-04T09:11:34;36.57;;;22.10;;
15342;SDS011;7771;48.478;8.936;2023-12-04T09:14:01;34.77;;;21.20;;
15342;SDS011;7771;48.478;8.936;2023-12-04T09:16:28;33.40;;;18.80;;
15342;SDS011;7771;48.478;8.936;2023-12-04T09:18:56;33.70;;;18.87;;
15342;SDS011;7771;48.478;8.936;2023-12-04T09:21:24;31.57;;;19.00;;
15342;SDS011;7771;48.478;8.936;2023-12-04T09:23:53;31.37;;;19.53;;
15342;SDS011;7771;48.478;8.936;2023-12-04T09:26:19;37.50;;;20.53;;
15342;SDS011;7771;48.478;8.936;2023-12-04T09:28:47;37.40;;;19.03;;
15342;SDS011;7771;48.478;8.936;2023-12-04T09:31:13;30.97;;;20.73;;
15342;SDS011;7771;48.478;8.936;2023-12-04T09:33:40;36.00;;;19.20;;
15342;SDS011;7771;48.478;8.936;2023-12-04T09:36:07;39.30;;;20.00;;
15342;SDS011;7771;48.478;8.936;2023-12-04T09:38:35;30.80;;;20.03;;
15342;SDS011;7771;48.478;8.936;2023-12-04T09:41:01;38.17;;;19.90;;
15342;SDS011;7771;48.478;8.936;2023-12-04T09:43:30;33.60;;;20.10;;
15342;SDS011;7771;48.478;8.936;2023-12-04T09:45:57;32.07;;;19.37;;
15342;SDS011;7771;48.478;8.936;2023-12-04T09:48:25;28.90;;;17.47;;
15342;SDS011;7771;48.478;8.936;2023-12-04T09:50:52;27.80;;;17.97;;
15342;SDS011;7771;48.478;8.936;2023-12-04T09:53:20;25.90;;;16.33;;
15342;SDS011;7771;48.478;8.936;2023-12-04T09:55:49;23.47;;;14.50;;
15342;SDS011;7771;48.478;8.936;2023-12-04T09:58:18;19.57;;;13.10;;
15342;SDS011;7771;48.478;8.936;2023-12-04T10:00:43;24.83;;;14.10;;
15342;SDS011;7771;48.478;8.936;2023-12-04T10:03:11;24.97;;;14.73;;
15342;SDS011;7771;48.478;8.936;2023-12-04T10:05:41;31.10;;;16.83;;
15342;SDS011;7771;48.478;8.936;2023-12-04T10:08:05;28.47;;;18.07;;
15342;SDS011;7771;48.478;8.936;2023-12-04T10:10:34;30.57;;;18.57;;
15342;SDS011;7771;48.478;8.936;2023-12-04T10:13:00;26.80;;;17.53;;
15342;SDS011;7771;48.478;8.936;2023-12-04T10:15:28;30.97;;;17.53;;
15342;SDS011;7771;48.478;8.936;2023-12-04T10:17:57;24.53;;;15.93;;
15342;SDS011;7771;48.478;8.936;2023-12-04T10:20:25;26.43;;;15.43;;
15342;SDS011;7771;48.478;8.936;2023-12-04T10:22:55;21.93;;;15.03;;
15342;SDS011;7771;48.478;8.936;2023-12-04T10:25:22;19.97;;;13.30;;
15342;SDS011;7771;48.478;8.936;2023-12-04T10:27:51;21.20;;;14.80;;
15342;SDS011;7771;48.478;8.936;2023-12-04T10:30:22;31.93;;;21.17;;
15342;SDS011;7771;48.478;8.936;2023-12-04T10:32:54;45.87;;;24.20;;
15342;SDS011;7771;48.478;8.936;2023-12-04T10:35:20;36.80;;;22.00;;
15342;SDS011;7771;48.478;8.936;2023-12-04T10:37:47;40.90;;;24.07;;
15342;SDS011;7771;48.478;8.936;2023-12-04T10:40:22;36.90;;;20.43;;
15342;SDS011;7771;48.478;8.936;2023-12-04T10:42:40;35.90;;;21.93;;
15342;SDS011;7771;48.478;8.936;2023-12-04T10:45:09;31.17;;;20.10;;
15342;SDS011;7771;48.478;8.936;2023-12-04T10:47:37;29.60;;;19.90;;
15342;SDS011;7771;48.478;8.936;2023-12-04T10:50:04;31.73;;;20.07;;
15342;SDS011;7771;48.478;8.936;2023-12-04T10:52:33;31.43;;;20.90;;
15342;SDS011;7771;48.478;8.936;2023-12-04T10:55:01;33.63;;;21.57;;
15342;SDS011;7771;48.478;8.936;2023-12-04T10:57:35;32.20;;;20.53;;
15342;SDS011;7771;48.478;8.936;2023-12-04T11:00:02;30.47;;;19.53;;
15342;SDS011;7771;48.478;8.936;2023-12-04T11:02:29;31.60;;;19.97;;
15342;SDS011;7771;48.478;8.936;2023-12-04T11:05:01;31.30;;;19.37;;
15342;SDS011;7771;48.478;8.936;2023-12-04T11:07:27;30.30;;;19.37;;
15342;SDS011;7771;48.478;8.936;2023-12-04T11:09:53;25.27;;;17.93;;
15342;SDS011;7771;48.478;8.936;2023-12-04T11:12:21;31.57;;;19.27;;
15342;SDS011;7771;48.478;8.936;2023-12-04T11:14:49;30.43;;;19.07;;
15342;SDS011;7771;48.478;8.936;2023-12-04T11:17:15;27.70;;;18.83;;
15342;SDS011;7771;48.478;8.936;2023-12-04T11:19:49;33.10;;;20.40;;
15342;SDS011;7771;48.478;8.936;2023-12-04T11:22:15;32.40;;;20.73;;
15342;SDS011;7771;48.478;8.936;2023-12-04T11:24:42;38.10;;;22.53;;
15342;SDS011;7771;48.478;8.936;2023-12-04T11:27:08;34.90;;;22.70;;
15342;SDS011;7771;48.478;8.936;2023-12-04T11:29:36;34.93;;;21.37;;
15342;SDS011;7771;48.478;8.936;2023-12-04T11:32:04;29.97;;;18.50;;
15342;SDS011;7771;48.478;8.936;2023-12-04T11:34:31;28.47;;;18.60;;
15342;SDS011;7771;48.478;8.936;2023-12-04T11:36:58;27.60;;;18.10;;
15342;SDS011;7771;48.478;8.936;2023-12-04T11:39:26;25.57;;;16.77;;
15342;SDS011;7771;48.478;8.936;2023-12-04T11:41:54;131.23;;;65.87;;
15342;SDS011;7771;48.478;8.936;2023-12-04T11:44:20;32.50;;;18.53;;
15342;SDS011;7771;48.478;8.936;2023-12-04T11:46:56;28.17;;;16.87;;
15342;SDS011;7771;48.478;8.936;2023-12-04T11:49:27;25.60;;;17.93;;
15342;SDS011;7771;48.478;8.936;2023-12-04T11:51:56;26.33;;;17.30;;
15342;SDS011;7771;48.478;8.936;2023-12-04T11:54:22;28.43;;;18.00;;
15342;SDS011;7771;48.478;8.936;2023-12-04T11:57:00;28.57;;;18.83;;
15342;SDS011;7771;48.478;8.936;2023-12-04T11:59:26;28.90;;;19.13;;
15342;SDS011;7771;48.478;8.936;2023-12-04T12:01:54;29.73;;;19.33;;
15342;SDS011;7771;48.478;8.936;2023-12-04T12:04:21;30.73;;;20.00;;
15342;SDS011;7771;48.478;8.936;2023-12-04T12:06:47;32.37;;;19.30;;
15342;SDS011;7771;48.478;8.936;2023-12-04T12:09:15;36.00;;;20.23;;
15342;SDS011;7771;48.478;8.936;2023-12-04T12:11:43;36.07;;;20.80;;
15342;SDS011;7771;48.478;8.936;2023-12-04T12:14:10;38.23;;;24.50;;
15342;SDS011;7771;48.478;8.936;2023-12-04T12:16:37;38.20;;;22.77;;
15342;SDS011;7771;48.478;8.936;2023-12-04T12:19:05;32.83;;;20.70;;
15342;SDS011;7771;48.478;8.936;2023-12-04T12:21:31;37.63;;;24.10;;
15342;SDS011;7771;48.478;8.936;2023-12-04T12:23:59;34.27;;;21.53;;
15342;SDS011;7771;48.478;8.936;2023-12-04T12:26:27;29.93;;;19.53;;
15342;SDS011;7771;48.478;8.936;2023-12-04T12:28:54;43.07;;;25.47;;
15342;SDS011;7771;48.478;8.936;2023-12-04T12:31:21;33.93;;;22.43;;
15342;SDS011;7771;48.478;8.936;2023-12-04T12:33:50;33.30;;;18.90;;
15342;SDS011;7771;48.478;8.936;2023-12-04T12:36:16;29.53;;;19.50;;
15342;SDS011;7771;48.478;8.936;2023-12-04T12:38:44;29.03;;;18.50;;
15342;SDS011;7771;48.478;8.936;2023-12-04T12:41:12;30.13;;;18.57;;
15342;SDS011;7771;48.478;8.936;2023-12-04T12:43:38;30.77;;;20.73;;
15342;SDS011;7771;48.478;8.936;2023-12-04T12:46:06;28.53;;;18.60;;
15342;SDS011;7771;48.478;8.936;2023-12-04T12:48:33;32.60;;;19.90;;
15342;SDS011;7771;48.478;8.936;2023-12-04T12:51:02;28.27;;;19.70;;
15342;SDS011;7771;48.478;8.936;2023-12-04T12:53:28;26.30;;;18.03;;
15342;SDS011;7771;48.478;8.936;2023-12-04T12:55:55;29.77;;;18.73;;
15342;SDS011;7771;48.478;8.936;2023-12-04T12:58:22;28.40;;;18.37;;
15342;SDS011;7771;48.478;8.936;2023-12-04T13:00:49;26.37;;;18.47;;
15342;SDS011;7771;48.478;8.936;2023-12-04T13:03:16;24.07;;;17.33;;
15342;SDS011;7771;48.478;8.936;2023-12-04T13:05:43;23.43;;;14.70;;
15342;SDS011;7771;48.478;8.936;2023-12-04T13:08:10;24.33;;;15.80;;
15342;SDS011;7771;48.478;8.936;2023-12-04T13:10:40;28.83;;;16.90;;
15342;SDS011;7771;48.478;8.936;2023-12-04T13:13:10;21.80;;;14.93;;
15342;SDS011;7771;48.478;8.936;2023-12-04T13:15:37;24.10;;;15.37;;
15342;SDS011;7771;48.478;8.936;2023-12-04T13:18:04;25.77;;;16.30;;
15342;SDS011;7771;48.478;8.936;2023-12-04T13:20:31;35.87;;;20.27;;
15342;SDS011;7771;48.478;8.936;2023-12-04T13:23:00;27.50;;;16.63;;
15342;SDS011;7771;48.478;8.936;2023-12-04T13:25:26;25.07;;;14.93;;
15342;SDS011;7771;48.478;8.936;2023-12-04T13:27:53;24.53;;;16.03;;
15342;SDS011;7771;48.478;8.936;2023-12-04T13:30:21;21.13;;;14.43;;
15342;SDS011;7771;48.478;8.936;2023-12-04T13:32:48;22.77;;;14.30;;
15342;SDS011;7771;48.478;8.936;2023-12-04T13:35:17;20.53;;;13.43;;
15342;SDS011;7771;48.478;8.936;2023-12-04T13:37:45;20.63;;;13.50;;
15342;SDS011;7771;48.478;8.936;2023-12-04T13:40:11;22.07;;;14.13;;
15342;SDS011;7771;48.478;8.936;2023-12-04T13:42:40;20.63;;;13.17;;
15342;SDS011;7771;48.478;8.936;2023-12-04T13:45:12;20.77;;;13.67;;
15342;SDS011;7771;48.478;8.936;2023-12-04T13:47:39;24.47;;;14.03;;
15342;SDS011;7771;48.478;8.936;2023-12-04T13:50:06;25.13;;;14.77;;
15342;SDS011;7771;48.478;8.936;2023-12-04T13:52:36;32.37;;;19.50;;
15342;SDS011;7771;48.478;8.936;2023-12-04T13:55:03;25.67;;;15.90;;
15342;SDS011;7771;48.478;8.936;2023-12-04T13:57:31;20.77;;;14.83;;
15342;SDS011;7771;48.478;8.936;2023-12-04T13:59:59;27.53;;;15.90;;
15342;SDS011;7771;48.478;8.936;2023-12-04T14:05:04;30.23;;;20.63;;
15342;SDS011;7771;48.478;8.936;2023-12-04T14:07:32;33.83;;;19.70;;
15342;SDS011;7771;48.478;8.936;2023-12-04T14:09:58;29.90;;;19.40;;
15342;SDS011;7771;48.478;8.936;2023-12-04T14:12:26;25.43;;;18.43;;
15342;SDS011;7771;48.478;8.936;2023-12-04T14:14:54;32.03;;;20.50;;
15342;SDS011;7771;48.478;8.936;2023-12-04T14:17:20;34.17;;;21.67;;
15342;SDS011;7771;48.478;8.936;2023-12-04T14:19:48;35.47;;;23.23;;
15342;SDS011;7771;48.478;8.936;2023-12-04T14:22:16;32.63;;;21.53;;
15342;SDS011;7771;48.478;8.936;2023-12-04T14:24:44;31.77;;;20.57;;
15342;SDS011;7771;48.478;8.936;2023-12-04T14:27:11;31.93;;;21.13;;
15342;SDS011;7771;48.478;8.936;2023-12-04T14:29:37;32.23;;;21.17;;
15342;SDS011;7771;48.478;8.936;2023-12-04T14:32:06;32.37;;;23.07;;
15342;SDS011;7771;48.478;8.936;2023-12-04T14:34:33;34.80;;;23.87;;
15342;SDS011;7771;48.478;8.936;2023-12-04T14:37:00;35.93;;;22.93;;
15342;SDS011;7771;48.478;8.936;2023-12-04T14:39:28;36.50;;;23.17;;
15342;SDS011;7771;48.478;8.936;2023-12-04T14:41:55;36.47;;;23.87;;